createdAt,value
2018-11-13T00:00:23.164Z,9.20
2018-11-13T00:02:53.162Z,9.20
2018-11-13T00:05:23.050Z,9.20
2018-11-13T00:07:52.444Z,9.30
2018-11-13T00:10:36.478Z,9.30
2018-11-13T00:13:05.958Z,9.30
2018-11-13T00:15:35.170Z,9.40
2018-11-13T00:18:04.738Z,9.40
2018-11-13T00:20:34.085Z,9.40
2018-11-13T00:23:03.277Z,9.50
2018-11-13T00:25:32.530Z,9.50
2018-11-13T00:28:01.888Z,9.50
2018-11-13T00:30:31.038Z,9.60
2018-11-13T00:33:00.266Z,9.70
2018-11-13T00:35:29.718Z,9.70
2018-11-13T00:37:58.950Z,9.80
2018-11-13T00:40:28.161Z,9.80
2018-11-13T00:42:57.518Z,9.90
2018-11-13T00:45:26.885Z,9.90
2018-11-13T00:47:56.116Z,9.90
2018-11-13T00:50:25.634Z,9.90
2018-11-13T00:52:54.798Z,10.00
2018-11-13T00:55:24.126Z,10.00
2018-11-13T00:57:53.690Z,10.00
2018-11-13T01:00:23.039Z,10.00
2018-11-13T01:02:52.370Z,10.00
2018-11-13T01:05:22.052Z,10.10
2018-11-13T01:07:52.005Z,10.10
2018-11-13T01:10:21.694Z,10.10
2018-11-13T01:12:51.184Z,10.00
2018-11-13T01:15:20.946Z,10.00
2018-11-13T01:17:50.576Z,10.00
2018-11-13T01:20:20.140Z,10.00
2018-11-13T01:22:49.441Z,10.00
2018-11-13T01:25:19.416Z,9.90
2018-11-13T01:27:48.955Z,9.90
2018-11-13T01:30:19.480Z,9.80
2018-11-13T01:32:48.863Z,9.80
2018-11-13T01:35:19.855Z,9.80
2018-11-13T01:37:49.113Z,9.80
2018-11-13T01:40:20.035Z,9.90
2018-11-13T01:42:49.363Z,9.80
2018-11-13T01:45:19.636Z,9.80
2018-11-13T01:47:49.125Z,9.90
2018-11-13T01:50:19.298Z,9.90
2018-11-13T01:52:48.588Z,9.90
2018-11-13T01:55:18.244Z,9.90
2018-11-13T01:57:47.724Z,10.00
2018-11-13T02:00:18.663Z,9.90
2018-11-13T02:02:49.210Z,9.80
2018-11-13T02:05:20.215Z,9.80
2018-11-13T02:07:50.057Z,9.80
2018-11-13T02:10:20.927Z,9.90
2018-11-13T02:12:50.765Z,9.80
2018-11-13T02:15:21.360Z,9.80
2018-11-13T02:17:50.683Z,9.80
2018-11-13T02:20:22.131Z,9.70
2018-11-13T02:22:51.478Z,9.70
2018-11-13T02:25:21.528Z,9.70
2018-11-13T02:27:51.215Z,9.70
2018-11-13T02:30:22.748Z,9.80
2018-11-13T02:32:52.200Z,9.80
2018-11-13T02:35:21.802Z,9.90
2018-11-13T02:37:51.008Z,9.90
2018-11-13T02:40:20.480Z,9.90
2018-11-13T02:42:50.250Z,10.00
2018-11-13T02:45:20.326Z,10.00
2018-11-13T02:47:49.848Z,10.00
2018-11-13T02:50:20.288Z,10.00
2018-11-13T02:52:49.747Z,10.00
2018-11-13T02:55:19.419Z,10.00
2018-11-13T02:57:48.848Z,10.10
2018-11-13T03:00:20.285Z,10.10
2018-11-13T03:05:50.397Z,10.10
2018-11-13T03:08:19.871Z,10.10
2018-11-13T03:10:49.372Z,10.20
2018-11-13T03:13:19.131Z,10.20
2018-11-13T03:15:48.512Z,10.20
2018-11-13T03:18:17.863Z,10.30
2018-11-13T03:20:47.682Z,10.20
2018-11-13T03:23:17.184Z,10.20
2018-11-13T03:25:46.616Z,10.20
2018-11-13T03:28:16.511Z,10.20
2018-11-13T03:30:45.944Z,10.20
2018-11-13T03:33:15.360Z,10.20
2018-11-13T03:35:45.060Z,10.20
2018-11-13T03:38:14.625Z,10.20
2018-11-13T03:40:44.065Z,10.20
2018-11-13T03:43:13.660Z,10.20
2018-11-13T03:45:43.073Z,10.20
2018-11-13T03:48:12.581Z,10.20
2018-11-13T03:50:42.260Z,10.20
2018-11-13T03:53:11.500Z,10.20
2018-11-13T03:55:40.991Z,10.20
2018-11-13T03:58:10.514Z,10.20
2018-11-13T04:00:40.003Z,10.10
2018-11-13T04:03:09.504Z,10.10
2018-11-13T04:05:39.181Z,10.10
2018-11-13T04:08:08.725Z,10.10
2018-11-13T04:10:38.121Z,10.00
2018-11-13T04:13:07.841Z,10.00
2018-11-13T04:15:37.340Z,10.00
2018-11-13T04:18:06.967Z,10.00
2018-11-13T04:20:36.340Z,10.00
2018-11-13T04:23:05.908Z,9.90
2018-11-13T04:25:35.260Z,9.90
2018-11-13T04:28:05.064Z,9.90
2018-11-13T04:30:34.378Z,9.90
2018-11-13T04:33:03.668Z,9.90
2018-11-13T04:35:33.335Z,9.90
2018-11-13T04:38:02.787Z,9.90
2018-11-13T04:40:32.232Z,9.90
2018-11-13T04:43:01.692Z,9.90
2018-11-13T04:45:30.974Z,9.80
2018-11-13T04:48:00.248Z,9.90
2018-11-13T04:50:29.782Z,9.90
2018-11-13T04:52:59.052Z,9.90
2018-11-13T04:55:28.312Z,9.90
2018-11-13T04:57:57.987Z,9.90
2018-11-13T05:00:27.347Z,9.90
2018-11-13T05:02:56.764Z,10.00
2018-11-13T05:05:26.604Z,10.00
2018-11-13T05:07:56.400Z,10.00
2018-11-13T05:10:26.233Z,10.00
2018-11-13T05:12:55.760Z,10.00
2018-11-13T05:15:24.952Z,10.00
2018-11-13T05:17:54.279Z,10.00
2018-11-13T05:20:23.564Z,10.00
2018-11-13T05:22:53.017Z,10.10
2018-11-13T05:25:22.533Z,10.10
2018-11-13T05:27:51.747Z,10.10
2018-11-13T05:30:22.166Z,10.10
2018-11-13T05:32:51.968Z,10.20
2018-11-13T05:35:22.013Z,10.20
2018-11-13T05:37:51.403Z,10.20
2018-11-13T05:40:26.357Z,10.10
2018-11-13T05:42:56.061Z,10.20
2018-11-13T05:45:26.376Z,10.20
2018-11-13T05:47:55.805Z,10.20
2018-11-13T05:50:25.200Z,10.20
2018-11-13T05:52:55.120Z,10.30
2018-11-13T05:55:24.659Z,10.20
2018-11-13T05:57:54.044Z,10.20
2018-11-13T06:00:30.568Z,10.20
2018-11-13T06:03:00.676Z,10.10
2018-11-13T06:05:30.696Z,10.20
2018-11-13T06:08:00.259Z,10.20
2018-11-13T06:10:29.839Z,10.20
2018-11-13T06:12:59.223Z,10.10
2018-11-13T06:15:28.731Z,10.10
2018-11-13T06:17:58.269Z,10.10
2018-11-13T06:20:27.731Z,10.10
2018-11-13T06:22:57.287Z,10.10
2018-11-13T06:25:26.585Z,10.10
2018-11-13T06:27:56.204Z,10.10
2018-11-13T06:30:26.225Z,10.10
2018-11-13T06:32:55.806Z,10.10
2018-11-13T06:35:25.151Z,10.10
2018-11-13T06:37:54.650Z,10.00
2018-11-13T06:40:24.046Z,10.00
2018-11-13T06:42:53.338Z,10.00
2018-11-13T06:45:23.801Z,10.00
2018-11-13T06:47:53.256Z,10.00
2018-11-13T06:50:22.531Z,10.00
2018-11-13T06:52:51.963Z,10.00
2018-11-13T06:55:24.891Z,10.00
2018-11-13T06:57:54.288Z,10.00
2018-11-13T07:00:23.840Z,10.00
2018-11-13T07:02:53.178Z,10.00
2018-11-13T07:05:22.685Z,10.00
2018-11-13T07:07:52.020Z,10.00
2018-11-13T07:10:22.563Z,10.00
2018-11-13T07:12:52.756Z,9.90
2018-11-13T07:15:23.226Z,9.90
2018-11-13T07:17:54.055Z,9.90
2018-11-13T07:20:24.296Z,10.00
2018-11-13T07:22:53.527Z,9.90
2018-11-13T07:25:23.342Z,10.00
2018-11-13T07:27:52.792Z,10.00
2018-11-13T07:30:22.775Z,10.00
2018-11-13T07:32:52.235Z,10.00
2018-11-13T07:35:22.383Z,10.10
2018-11-13T07:37:53.504Z,10.10
2018-11-13T07:40:22.822Z,10.10
2018-11-13T07:42:52.403Z,10.10
2018-11-13T07:45:21.864Z,10.10
2018-11-13T07:47:51.632Z,10.10
2018-11-13T07:50:20.823Z,10.00
2018-11-13T07:52:50.318Z,10.10
2018-11-13T07:55:19.566Z,10.10
2018-11-13T07:57:48.956Z,10.10
2018-11-13T08:00:20.448Z,10.10
2018-11-13T08:02:50.998Z,10.10
2018-11-13T08:05:20.353Z,10.10
2018-11-13T08:07:49.847Z,10.10
2018-11-13T08:10:19.375Z,10.10
2018-11-13T08:12:48.696Z,10.10
2018-11-13T08:15:18.479Z,10.10
2018-11-13T08:17:48.090Z,10.20
2018-11-13T08:20:17.335Z,10.20
2018-11-13T08:22:46.825Z,10.20
2018-11-13T08:25:16.820Z,10.30
2018-11-13T08:27:46.189Z,10.30
2018-11-13T08:30:17.292Z,10.30
2018-11-13T08:32:47.196Z,10.30
2018-11-13T08:35:16.812Z,10.30
2018-11-13T08:37:46.145Z,10.30
2018-11-13T08:40:17.118Z,10.30
2018-11-13T08:42:46.855Z,10.30
2018-11-13T08:45:17.396Z,10.30
2018-11-13T08:47:46.851Z,10.30
2018-11-13T08:50:16.697Z,10.30
2018-11-13T08:52:46.596Z,10.30
2018-11-13T08:55:16.684Z,10.30
2018-11-13T08:57:46.001Z,10.40
2018-11-13T09:00:18.233Z,10.40
2018-11-13T09:02:48.200Z,10.50
2018-11-13T09:05:18.318Z,10.40
2018-11-13T09:07:47.611Z,10.50
2018-11-13T09:10:18.160Z,10.60
2018-11-13T09:12:48.184Z,10.60
2018-11-13T09:15:20.176Z,10.70
2018-11-13T09:17:49.762Z,10.60
2018-11-13T09:20:20.431Z,10.70
2018-11-13T09:22:49.938Z,10.70
2018-11-13T09:25:21.626Z,10.70
2018-11-13T09:27:50.997Z,10.70
2018-11-13T09:30:21.443Z,10.60
2018-11-13T09:32:51.128Z,10.70
2018-11-13T09:35:20.785Z,10.70
2018-11-13T09:37:50.058Z,10.60
2018-11-13T09:40:20.927Z,10.70
2018-11-13T09:42:51.583Z,10.70
2018-11-13T09:45:21.040Z,10.70
2018-11-13T09:47:50.555Z,10.70
2018-11-13T09:50:21.503Z,10.70
2018-11-13T09:52:52.206Z,10.70
2018-11-13T09:58:02.405Z,10.80
2018-11-13T10:00:32.050Z,10.80
2018-11-13T10:03:02.246Z,10.80
2018-11-13T10:05:31.380Z,10.80
2018-11-13T10:08:00.611Z,10.80
2018-11-13T10:10:29.894Z,10.80
2018-11-13T10:12:59.604Z,10.80
2018-11-13T10:15:30.217Z,10.80
2018-11-13T10:18:00.018Z,10.80
2018-11-13T10:20:29.531Z,10.80
2018-11-13T10:22:59.537Z,10.90
2018-11-13T10:25:28.976Z,10.90
2018-11-13T10:27:58.467Z,10.90
2018-11-13T10:30:27.887Z,10.90
2018-11-13T10:32:57.417Z,10.90
2018-11-13T10:35:27.311Z,10.90
2018-11-13T10:37:56.904Z,10.90
2018-11-13T10:40:26.316Z,11.00
2018-11-13T10:42:55.887Z,10.90
2018-11-13T10:45:26.508Z,10.90
2018-11-13T10:47:55.973Z,10.90
2018-11-13T10:50:26.339Z,11.00
2018-11-13T10:52:56.048Z,11.00
2018-11-13T10:55:25.460Z,11.10
2018-11-13T10:57:54.987Z,11.10
2018-11-13T11:00:28.612Z,11.20
2018-11-13T11:03:03.221Z,11.20
2018-11-13T11:05:32.944Z,11.30
2018-11-13T11:08:02.403Z,11.30
2018-11-13T11:10:31.780Z,11.20
2018-11-13T11:13:01.271Z,11.20
2018-11-13T11:15:30.432Z,11.20
2018-11-13T11:17:59.670Z,11.20
2018-11-13T11:20:29.889Z,11.20
2018-11-13T11:22:59.423Z,11.10
2018-11-13T11:25:28.940Z,11.10
2018-11-13T11:27:58.839Z,11.10
2018-11-13T11:30:28.231Z,11.10
2018-11-13T11:32:57.602Z,11.10
2018-11-13T11:35:27.113Z,11.10
2018-11-13T11:37:56.484Z,11.10
2018-11-13T11:40:26.341Z,11.00
2018-11-13T11:42:55.749Z,11.00
2018-11-13T11:45:25.504Z,11.00
2018-11-13T11:47:54.815Z,10.90
2018-11-13T11:50:24.497Z,11.00
2018-11-13T11:52:53.861Z,10.90
2018-11-13T11:55:23.214Z,10.90
2018-11-13T11:57:52.780Z,10.90
2018-11-13T12:00:27.344Z,11.00
2018-11-13T12:02:56.960Z,11.00
2018-11-13T12:05:26.612Z,11.00
2018-11-13T12:07:56.142Z,11.10
2018-11-13T12:10:25.932Z,11.00
2018-11-13T12:12:55.159Z,11.00
2018-11-13T12:15:24.857Z,11.10
2018-11-13T12:17:54.536Z,11.00
2018-11-13T12:20:23.883Z,11.10
2018-11-13T12:22:53.309Z,11.10
2018-11-13T12:25:22.795Z,11.10
2018-11-13T12:27:52.265Z,11.00
2018-11-13T12:30:22.930Z,11.00
2018-11-13T12:32:52.808Z,10.90
2018-11-13T12:35:22.740Z,10.90
2018-11-13T12:37:52.064Z,10.80
2018-11-13T12:40:22.884Z,10.80
2018-11-13T12:42:52.655Z,10.80
2018-11-13T12:45:22.098Z,10.80
2018-11-13T12:47:51.627Z,10.80
2018-11-13T12:50:21.722Z,10.70
2018-11-13T12:52:51.199Z,10.80
2018-11-13T12:55:21.923Z,10.60
2018-11-13T12:57:51.469Z,10.60
2018-11-13T13:00:23.853Z,10.60
2018-11-13T13:02:53.240Z,10.60
2018-11-13T13:05:22.614Z,10.50
2018-11-13T13:07:52.524Z,10.50
2018-11-13T13:10:22.747Z,10.50
2018-11-13T13:12:52.208Z,10.40
2018-11-13T13:15:21.671Z,10.40
2018-11-13T13:17:50.855Z,10.40
2018-11-13T13:20:22.845Z,10.40
2018-11-13T13:22:52.490Z,10.40
2018-11-13T13:25:23.185Z,10.50
2018-11-13T13:27:52.529Z,10.50
2018-11-13T13:30:25.371Z,10.50
2018-11-13T13:32:54.748Z,10.50
2018-11-13T13:35:40.224Z,10.50
2018-11-13T13:38:10.088Z,10.50
2018-11-13T13:40:40.161Z,10.50
2018-11-13T13:43:10.472Z,10.50
2018-11-13T13:45:40.513Z,10.50
2018-11-13T13:48:09.796Z,10.50
2018-11-13T13:50:39.603Z,10.40
2018-11-13T13:53:09.804Z,10.40
2018-11-13T13:55:39.173Z,10.40
2018-11-13T13:58:08.836Z,10.40
2018-11-13T14:00:38.302Z,10.40
2018-11-13T14:03:08.561Z,10.50
2018-11-13T14:05:38.108Z,10.50
2018-11-13T14:08:08.128Z,10.50
2018-11-13T14:10:37.352Z,10.50
2018-11-13T14:13:07.087Z,10.50
2018-11-13T14:15:36.559Z,10.50
2018-11-13T14:18:05.904Z,10.50
2018-11-13T14:20:35.404Z,10.50
2018-11-13T14:23:04.785Z,10.50
2018-11-13T14:25:34.292Z,10.50
2018-11-13T14:28:03.863Z,10.50
2018-11-13T14:30:34.727Z,10.50
2018-11-13T14:33:07.267Z,10.50
2018-11-13T14:35:36.720Z,10.40
2018-11-13T14:38:06.140Z,10.40
2018-11-13T14:40:38.076Z,10.40
2018-11-13T14:43:07.683Z,10.40
2018-11-13T14:45:37.287Z,10.40
2018-11-13T14:48:07.462Z,10.40
2018-11-13T14:50:37.311Z,10.40
2018-11-13T14:53:07.081Z,10.30
2018-11-13T14:55:38.684Z,10.30
2018-11-13T14:58:09.417Z,10.30
2018-11-13T15:00:39.323Z,10.30
2018-11-13T15:03:10.155Z,10.30
2018-11-13T15:05:39.488Z,10.30
2018-11-13T15:08:09.578Z,10.30
2018-11-13T15:10:50.000Z,10.30
2018-11-13T15:13:20.097Z,10.30
2018-11-13T15:15:49.581Z,10.30
2018-11-13T15:18:18.868Z,10.30
2018-11-13T15:20:49.011Z,10.20
2018-11-13T15:23:18.358Z,10.30
2018-11-13T15:25:47.636Z,10.30
2018-11-13T15:28:17.182Z,10.30
2018-11-13T15:30:48.107Z,10.30
2018-11-13T15:33:18.994Z,10.30
2018-11-13T15:35:48.447Z,10.30
2018-11-13T15:38:18.052Z,10.30
2018-11-13T15:40:47.561Z,10.20
2018-11-13T15:43:17.161Z,10.20
2018-11-13T15:45:46.707Z,10.20
2018-11-13T15:48:17.251Z,10.20
2018-11-13T15:50:46.564Z,10.20
2018-11-13T15:53:16.092Z,10.10
2018-11-13T15:55:45.603Z,10.00
2018-11-13T15:58:14.874Z,10.00
2018-11-13T16:00:44.404Z,9.90
2018-11-13T16:03:16.377Z,9.80
2018-11-13T16:05:54.015Z,9.70
2018-11-13T16:08:23.410Z,9.70
2018-11-13T16:10:52.636Z,9.70
2018-11-13T16:13:22.083Z,9.60
2018-11-13T16:15:51.412Z,9.60
2018-11-13T16:18:24.281Z,9.50
2018-11-13T16:20:53.660Z,9.60
2018-11-13T16:23:23.667Z,9.50
2018-11-13T16:25:53.332Z,9.50
2018-11-13T16:28:22.879Z,9.40
2018-11-13T16:30:52.348Z,9.40
2018-11-13T16:33:21.907Z,9.40
2018-11-13T16:35:52.032Z,9.40
2018-11-13T16:38:23.589Z,9.30
2018-11-13T16:40:53.632Z,9.20
2018-11-13T16:43:23.188Z,9.10
2018-11-13T16:45:53.023Z,9.00
2018-11-13T16:48:22.537Z,8.90
2018-11-13T16:50:51.681Z,8.80
2018-11-13T16:53:21.209Z,8.70
2018-11-13T16:55:55.965Z,8.60
2018-11-13T16:58:25.149Z,8.60
2018-11-13T17:00:54.534Z,8.50
2018-11-13T17:03:24.073Z,8.40
2018-11-13T17:05:53.403Z,8.40
2018-11-13T17:08:22.735Z,8.30
2018-11-13T17:10:52.236Z,8.30
2018-11-13T17:13:21.587Z,8.40
2018-11-13T17:15:51.034Z,8.40
2018-11-13T17:18:20.480Z,8.40
2018-11-13T17:20:49.783Z,8.50
2018-11-13T17:23:19.272Z,8.60
2018-11-13T17:25:48.949Z,8.70
2018-11-13T17:28:18.333Z,8.70
2018-11-13T17:30:47.744Z,8.80
2018-11-13T17:33:17.184Z,8.80
2018-11-13T17:35:46.594Z,8.90
2018-11-13T17:38:15.860Z,8.90
2018-11-13T17:40:45.968Z,9.00
2018-11-13T17:43:15.355Z,9.10
2018-11-13T17:45:44.745Z,9.10
2018-11-13T17:48:14.226Z,9.20
2018-11-13T17:50:43.977Z,9.30
2018-11-13T17:53:13.466Z,9.30
2018-11-13T17:55:43.100Z,9.40
2018-11-13T17:58:14.042Z,9.50
2018-11-13T18:00:45.596Z,9.50
2018-11-13T18:03:15.596Z,9.50
2018-11-13T18:05:46.387Z,9.50
2018-11-13T18:08:15.716Z,9.50
2018-11-13T18:10:45.985Z,9.40
2018-11-13T18:13:15.799Z,9.40
2018-11-13T18:15:45.055Z,9.40
2018-11-13T18:18:14.466Z,9.40
2018-11-13T18:20:44.073Z,9.40
2018-11-13T18:23:13.488Z,9.40
2018-11-13T18:25:43.820Z,9.30
2018-11-13T18:28:14.424Z,9.40
2018-11-13T18:30:44.839Z,9.40
2018-11-13T18:33:14.681Z,9.40
2018-11-13T18:35:44.144Z,9.50
2018-11-13T18:38:14.752Z,9.50
2018-11-13T18:40:44.223Z,9.50
2018-11-13T18:43:16.238Z,9.60
2018-11-13T18:45:46.579Z,9.60
2018-11-13T18:48:16.157Z,9.60
2018-11-13T18:50:46.511Z,9.70
2018-11-13T18:53:43.889Z,9.70
2018-11-13T18:56:23.272Z,9.70
2018-11-13T18:58:53.213Z,9.80
2018-11-13T19:01:22.745Z,9.80
2018-11-13T19:03:52.590Z,9.80
2018-11-13T19:06:23.327Z,9.90
2018-11-13T19:08:53.572Z,9.90
2018-11-13T19:11:23.140Z,9.90
2018-11-13T19:13:53.412Z,10.00
2018-11-13T19:16:23.040Z,10.00
2018-11-13T19:18:52.716Z,10.00
2018-11-13T19:21:22.612Z,10.00
2018-11-13T19:23:52.284Z,10.00
2018-11-13T19:26:21.754Z,10.00
2018-11-13T19:28:51.811Z,10.00
2018-11-13T19:31:28.001Z,10.10
2018-11-13T19:33:57.725Z,10.10
2018-11-13T19:36:28.164Z,10.10
2018-11-13T19:38:57.640Z,10.10
2018-11-13T19:41:27.623Z,10.10
2018-11-13T19:43:57.569Z,10.10
2018-11-13T19:46:27.114Z,10.10
2018-11-13T19:48:57.298Z,10.10
2018-11-13T19:51:27.023Z,10.20
2018-11-13T19:53:57.706Z,10.10
2018-11-13T19:56:28.994Z,10.20
2018-11-13T19:59:11.085Z,10.20
2018-11-13T20:09:06.136Z,10.20
2018-11-13T20:11:35.397Z,10.20
2018-11-13T20:14:04.772Z,10.20
2018-11-13T20:16:34.580Z,10.20
2018-11-13T20:19:04.343Z,10.20
2018-11-13T20:21:34.620Z,10.20
2018-11-13T20:24:03.956Z,10.20
2018-11-13T20:26:33.470Z,10.20
2018-11-13T20:29:03.003Z,10.20
2018-11-13T20:31:32.738Z,10.20
2018-11-13T20:34:02.312Z,10.20
2018-11-13T20:36:31.507Z,10.20
2018-11-13T20:39:01.796Z,10.20
2018-11-13T20:41:31.927Z,10.20
2018-11-13T20:44:01.208Z,10.20
2018-11-13T20:46:30.674Z,10.20
2018-11-13T20:49:00.100Z,10.20
2018-11-13T20:51:29.567Z,10.30
2018-11-13T20:54:00.089Z,10.30
2018-11-13T20:56:29.536Z,10.20
2018-11-13T20:58:59.798Z,10.20
2018-11-13T21:01:29.524Z,10.20
2018-11-13T21:03:58.927Z,10.20
2018-11-13T21:06:28.420Z,10.20
2018-11-13T21:08:58.021Z,10.30
2018-11-13T21:11:27.675Z,10.20
2018-11-13T21:13:57.095Z,10.20
2018-11-13T21:16:26.788Z,10.30
2018-11-13T21:18:56.253Z,10.20
2018-11-13T21:21:25.671Z,10.20
2018-11-13T21:23:55.269Z,10.20
2018-11-13T21:26:25.003Z,10.20
2018-11-13T21:28:54.452Z,10.10
2018-11-13T21:31:24.098Z,10.20
2018-11-13T21:33:54.073Z,10.10
2018-11-13T21:36:23.693Z,10.10
2018-11-13T21:39:00.273Z,10.10
2018-11-13T21:41:29.892Z,10.00
2018-11-13T21:43:59.092Z,9.90
2018-11-13T21:46:29.131Z,9.70
2018-11-13T21:48:58.530Z,9.70
2018-11-13T21:51:27.807Z,9.60
2018-11-13T21:53:58.304Z,9.50
2018-11-13T21:56:27.716Z,9.40
2018-11-13T21:58:57.040Z,9.30
2018-11-13T22:01:26.791Z,9.30
2018-11-13T22:03:56.297Z,9.30
2018-11-13T22:06:25.634Z,9.30
2018-11-13T22:08:55.334Z,9.20
2018-11-13T22:11:24.537Z,9.30
2018-11-13T22:13:54.627Z,9.40
2018-11-13T22:16:24.525Z,9.50
2018-11-13T22:18:55.227Z,9.50
2018-11-13T22:21:24.443Z,9.60
2018-11-13T22:23:54.702Z,9.60
2018-11-13T22:26:23.983Z,9.70
2018-11-13T22:28:54.278Z,9.70
2018-11-13T22:31:23.845Z,9.80
2018-11-13T22:33:53.504Z,9.80
2018-11-13T22:36:22.808Z,9.80
2018-11-13T22:38:53.480Z,9.80
2018-11-13T22:41:22.749Z,9.90
2018-11-13T22:43:52.101Z,9.90
2018-11-13T22:46:22.380Z,9.90
2018-11-13T22:48:51.680Z,10.00
2018-11-13T22:51:21.036Z,10.00
2018-11-13T22:53:50.983Z,10.00
2018-11-13T22:56:20.390Z,10.00
2018-11-13T22:58:49.543Z,10.00
2018-11-13T23:01:19.444Z,10.00
2018-11-13T23:03:48.872Z,10.00
2018-11-13T23:06:18.610Z,10.00
2018-11-13T23:08:48.485Z,10.00
2018-11-13T23:11:17.892Z,10.00
2018-11-13T23:13:47.291Z,10.00
2018-11-13T23:16:17.013Z,10.10
2018-11-13T23:18:46.261Z,10.00
2018-11-13T23:21:15.827Z,10.10
2018-11-13T23:23:45.682Z,10.10
2018-11-13T23:26:15.005Z,10.10
2018-11-13T23:28:44.627Z,10.10
2018-11-13T23:31:14.842Z,10.10
2018-11-13T23:33:47.400Z,10.10
2018-11-13T23:36:17.471Z,10.10
2018-11-13T23:38:46.935Z,10.10
2018-11-13T23:41:16.112Z,10.10
2018-11-13T23:43:46.106Z,10.00
2018-11-13T23:46:15.484Z,10.10
2018-11-13T23:48:44.851Z,10.00
2018-11-13T23:51:14.726Z,10.10
2018-11-13T23:53:44.186Z,10.10
2018-11-13T23:56:13.734Z,10.10
2018-11-13T23:58:43.929Z,10.10
